createdAt,value
2018-09-03T00:01:44.354Z,16.20
2018-09-03T00:04:13.663Z,16.10
2018-09-03T00:06:42.218Z,16.10
2018-09-03T00:09:11.453Z,16.00
2018-09-03T00:11:39.950Z,16.00
2018-09-03T00:14:08.458Z,16.00
2018-09-03T00:16:36.941Z,16.10
2018-09-03T00:19:05.439Z,16.00
2018-09-03T00:21:34.975Z,16.00
2018-09-03T00:24:03.455Z,16.00
2018-09-03T00:26:31.913Z,16.10
2018-09-03T00:29:00.470Z,16.10
2018-09-03T00:31:34.435Z,16.00
2018-09-03T00:34:08.345Z,16.00
2018-09-03T00:36:42.078Z,16.00
2018-09-03T00:39:16.185Z,16.00
2018-09-03T00:41:49.936Z,16.00
2018-09-03T00:44:23.763Z,16.00
2018-09-03T00:46:59.165Z,16.00
2018-09-03T00:49:27.747Z,16.00
2018-09-03T00:51:56.221Z,16.00
2018-09-03T00:54:24.661Z,16.00
2018-09-03T00:56:53.749Z,16.00
2018-09-03T00:59:22.225Z,16.00
2018-09-03T01:01:50.925Z,15.90
2018-09-03T01:04:20.231Z,15.80
2018-09-03T01:06:48.706Z,15.70
2018-09-03T01:09:17.362Z,15.70
2018-09-03T01:11:45.842Z,15.70
2018-09-03T01:19:14.983Z,15.70
2018-09-03T01:21:44.056Z,15.50
2018-09-03T01:24:12.530Z,15.40
2018-09-03T01:26:41.126Z,15.30
2018-09-03T01:29:09.590Z,15.30
2018-09-03T01:31:38.061Z,15.20
2018-09-03T01:34:06.581Z,15.10
2018-09-03T01:36:35.078Z,15.00
2018-09-03T01:39:04.890Z,14.90
2018-09-03T01:41:33.803Z,14.90
2018-09-03T01:44:02.301Z,14.80
2018-09-03T01:46:30.770Z,14.80
2018-09-03T01:48:59.291Z,14.80
2018-09-03T01:51:27.782Z,14.80
2018-09-03T01:53:56.252Z,14.70
2018-09-03T01:56:24.757Z,14.70
2018-09-03T01:58:53.214Z,14.70
2018-09-03T02:01:21.690Z,14.60
2018-09-03T02:03:50.656Z,14.70
2018-09-03T02:06:20.130Z,14.60
2018-09-03T02:08:48.606Z,14.60
2018-09-03T02:11:20.066Z,14.50
2018-09-03T02:13:48.598Z,14.50
2018-09-03T02:16:18.413Z,14.50
2018-09-03T02:18:46.960Z,14.40
2018-09-03T02:26:11.578Z,14.30
2018-09-03T02:28:40.486Z,14.20
2018-09-03T02:31:08.951Z,14.20
2018-09-03T02:33:37.510Z,14.20
2018-09-03T02:36:06.039Z,14.10
2018-09-03T02:38:34.515Z,14.10
2018-09-03T02:41:03.015Z,14.20
2018-09-03T02:43:31.485Z,14.30
2018-09-03T02:45:59.953Z,14.30
2018-09-03T02:48:28.510Z,14.30
2018-09-03T02:50:56.999Z,14.30
2018-09-03T02:53:25.457Z,14.20
2018-09-03T02:55:53.990Z,14.20
2018-09-03T02:58:22.505Z,14.30
2018-09-03T03:00:51.007Z,14.20
2018-09-03T03:03:19.534Z,14.00
2018-09-03T03:05:48.035Z,14.00
2018-09-03T03:08:18.610Z,13.90
2018-09-03T03:10:47.979Z,13.80
2018-09-03T03:13:17.394Z,13.70
2018-09-03T03:15:45.919Z,13.60
2018-09-03T03:18:37.013Z,13.70
2018-09-03T03:21:05.706Z,13.70
2018-09-03T03:23:34.274Z,13.70
2018-09-03T03:26:03.547Z,13.70
2018-09-03T03:28:32.407Z,13.50
2018-09-03T03:31:00.878Z,13.50
2018-09-03T03:33:29.407Z,13.40
2018-09-03T03:35:57.902Z,13.50
2018-09-03T03:38:26.369Z,13.30
2018-09-03T03:40:54.853Z,13.30
2018-09-03T03:43:23.322Z,13.20
2018-09-03T03:45:51.844Z,13.20
2018-09-03T03:48:21.145Z,13.10
2018-09-03T03:50:49.602Z,13.10
2018-09-03T03:53:18.057Z,13.00
2018-09-03T03:55:46.547Z,13.00
2018-09-03T04:03:11.012Z,13.10
2018-09-03T04:05:40.474Z,13.00
2018-09-03T04:08:08.938Z,13.00
2018-09-03T04:10:39.938Z,12.90
2018-09-03T04:13:08.461Z,12.80
2018-09-03T04:15:36.913Z,12.80
2018-09-03T04:18:05.494Z,12.90
2018-09-03T04:20:33.993Z,12.90
2018-09-03T04:23:02.532Z,13.00
2018-09-03T04:25:30.971Z,12.90
2018-09-03T04:27:59.485Z,12.80
2018-09-03T04:30:28.006Z,12.90
2018-09-03T04:32:57.257Z,12.90
2018-09-03T04:35:25.734Z,12.90
2018-09-03T04:37:54.249Z,12.90
2018-09-03T04:40:22.798Z,12.70
2018-09-03T04:42:51.325Z,12.50
2018-09-03T04:45:19.807Z,12.50
2018-09-03T04:47:48.351Z,12.50
2018-09-03T04:50:17.440Z,12.50
2018-09-03T04:52:46.247Z,12.50
2018-09-03T05:00:11.841Z,12.40
2018-09-03T05:02:40.719Z,12.50
2018-09-03T05:05:09.225Z,12.60
2018-09-03T05:07:37.742Z,12.70
2018-09-03T05:10:06.319Z,12.80
2018-09-03T05:12:35.355Z,13.00
2018-09-03T05:15:04.864Z,13.10
2018-09-03T05:17:33.330Z,13.20
2018-09-03T05:20:01.811Z,13.20
2018-09-03T05:22:30.538Z,13.10
2018-09-03T05:24:58.990Z,13.20
2018-09-03T05:27:27.465Z,13.30
2018-09-03T05:29:56.018Z,13.40
2018-09-03T05:32:24.506Z,13.40
2018-09-03T05:34:52.958Z,13.40
2018-09-03T05:37:21.481Z,13.50
2018-09-03T05:39:49.946Z,13.50
2018-09-03T05:42:18.425Z,13.60
2018-09-03T05:44:47.674Z,13.70
2018-09-03T05:47:17.828Z,13.80
2018-09-03T05:49:46.807Z,13.90
2018-09-03T05:57:12.671Z,14.10
2018-09-03T05:59:41.189Z,14.30
2018-09-03T06:02:09.786Z,14.20
2018-09-03T06:04:38.522Z,14.30
2018-09-03T06:07:07.467Z,14.60
2018-09-03T06:09:35.960Z,14.70
2018-09-03T06:12:04.525Z,15.00
2018-09-03T06:14:33.441Z,15.20
2018-09-03T06:17:02.814Z,15.20
2018-09-03T06:19:31.323Z,15.40
2018-09-03T06:21:59.841Z,15.70
2018-09-03T06:24:28.335Z,15.90
2018-09-03T06:26:57.415Z,15.90
2018-09-03T06:29:25.931Z,16.10
2018-09-03T06:31:54.397Z,16.10
2018-09-03T06:34:22.899Z,16.10
2018-09-03T06:36:51.376Z,16.20
2018-09-03T06:39:19.870Z,16.30
2018-09-03T06:41:48.439Z,16.40
2018-09-03T06:44:17.422Z,16.40
2018-09-03T06:46:45.890Z,16.50
2018-09-03T06:54:15.198Z,17.20
2018-09-03T06:56:43.693Z,18.90
2018-09-03T06:59:12.194Z,19.30
2018-09-03T07:01:40.711Z,20.50
2018-09-03T07:04:09.200Z,21.10
2018-09-03T07:06:37.773Z,21.50
2018-09-03T07:09:08.846Z,22.00
2018-09-03T07:14:05.627Z,24.50
2018-09-03T07:16:35.258Z,25.60
2018-09-03T07:19:03.738Z,26.40
2018-09-03T07:21:32.247Z,26.00
2018-09-03T07:24:00.803Z,25.60
2018-09-03T07:26:29.355Z,25.00
2018-09-03T07:28:57.879Z,24.70
2018-09-03T07:31:26.358Z,25.10
2018-09-03T07:33:54.850Z,25.70
2018-09-03T07:36:23.341Z,26.70
2018-09-03T07:38:52.557Z,27.70
2018-09-03T07:41:21.014Z,28.00
2018-09-03T07:43:49.813Z,28.10
2018-09-03T07:46:18.380Z,28.10
2018-09-03T07:48:46.865Z,27.60
2018-09-03T07:56:16.105Z,25.80
2018-09-03T07:58:45.700Z,23.80
2018-09-03T08:06:10.143Z,22.20
2018-09-03T08:08:38.908Z,21.50
2018-09-03T08:11:07.476Z,23.40
2018-09-03T08:13:39.336Z,25.50
2018-09-03T08:16:08.291Z,27.20
2018-09-03T08:18:37.501Z,29.30
2018-09-03T08:21:06.185Z,31.60
2018-09-03T08:23:34.707Z,32.80
2018-09-03T08:26:04.283Z,33.70
2018-09-03T08:28:33.322Z,33.60
2018-09-03T08:31:01.986Z,34.90
2018-09-03T08:33:31.089Z,35.60
2018-09-03T08:36:00.210Z,35.30
2018-09-03T08:38:28.689Z,34.20
2018-09-03T08:40:57.441Z,33.10
2018-09-03T08:43:25.966Z,32.00
2018-09-03T08:45:54.450Z,30.80
2018-09-03T08:48:22.946Z,29.40
2018-09-03T08:50:51.457Z,28.20
2018-09-03T08:53:19.979Z,27.10
2018-09-03T08:55:48.489Z,26.00
2018-09-03T08:58:18.169Z,25.20
2018-09-03T09:00:46.677Z,24.50
2018-09-03T09:08:14.431Z,23.80
2018-09-03T09:10:42.946Z,23.30
2018-09-03T09:13:11.478Z,23.20
2018-09-03T09:15:40.304Z,22.90
2018-09-03T09:18:08.773Z,22.80
2018-09-03T09:20:41.130Z,22.70
2018-09-03T09:23:09.598Z,22.40
2018-09-03T09:25:38.131Z,22.30
2018-09-03T09:28:06.642Z,22.20
2018-09-03T09:30:35.148Z,22.20
2018-09-03T09:33:03.633Z,22.00
2018-09-03T09:35:32.662Z,22.00
2018-09-03T09:38:01.113Z,21.90
2018-09-03T09:40:29.627Z,21.70
2018-09-03T09:42:59.002Z,21.80
2018-09-03T09:45:27.627Z,21.80
2018-09-03T09:47:56.095Z,21.70
2018-09-03T09:50:24.648Z,21.60
2018-09-03T09:52:53.145Z,21.60
2018-09-03T09:55:21.642Z,21.60
2018-09-03T09:57:52.152Z,21.40
2018-09-03T10:00:25.863Z,21.40
2018-09-03T10:02:54.741Z,21.30
2018-09-03T10:05:23.234Z,21.20
2018-09-03T10:07:51.733Z,21.10
2018-09-03T10:10:20.268Z,21.00
2018-09-03T10:12:48.729Z,20.60
2018-09-03T10:15:17.438Z,20.40
2018-09-03T10:17:46.222Z,20.30
2018-09-03T10:25:15.613Z,20.30
2018-09-03T10:27:44.168Z,20.20
2018-09-03T10:30:13.535Z,20.20
2018-09-03T10:32:42.084Z,20.20
2018-09-03T10:35:10.577Z,20.20
2018-09-03T10:37:39.557Z,20.20
2018-09-03T10:40:08.742Z,20.30
2018-09-03T10:42:37.229Z,20.40
2018-09-03T10:45:05.791Z,20.10
2018-09-03T10:47:34.374Z,20.10
2018-09-03T10:50:03.422Z,20.10
2018-09-03T10:52:31.930Z,20.10
2018-09-03T10:55:00.483Z,20.10
2018-09-03T10:57:29.005Z,20.10
2018-09-03T10:59:57.558Z,19.80
2018-09-03T11:02:26.705Z,19.80
2018-09-03T11:04:55.244Z,19.70
2018-09-03T11:07:23.758Z,19.90
2018-09-03T11:09:52.293Z,20.00
2018-09-03T11:12:20.847Z,19.80
2018-09-03T11:14:49.371Z,19.80
2018-09-03T11:17:18.341Z,19.60
2018-09-03T11:19:50.105Z,19.50
2018-09-03T11:22:20.106Z,19.50
2018-09-03T11:24:48.569Z,19.60
2018-09-03T11:27:18.215Z,19.60
2018-09-03T11:29:46.751Z,19.70
2018-09-03T11:37:14.831Z,19.90
2018-09-03T11:39:43.318Z,19.90
2018-09-03T11:42:13.441Z,19.70
2018-09-03T11:44:42.852Z,20.00
2018-09-03T11:47:11.370Z,20.30
2018-09-03T11:49:40.783Z,20.50
2018-09-03T11:52:09.346Z,20.80
2018-09-03T11:54:37.907Z,20.80
2018-09-03T11:57:06.443Z,20.90
2018-09-03T11:59:35.147Z,21.10
2018-09-03T12:02:04.850Z,21.30
2018-09-03T12:04:33.966Z,21.50
2018-09-03T12:07:03.139Z,21.50
2018-09-03T12:09:32.302Z,21.60
2018-09-03T12:12:00.801Z,21.70
2018-09-03T12:14:32.632Z,21.50
2018-09-03T12:17:01.225Z,21.40
2018-09-03T12:19:29.697Z,21.10
2018-09-03T12:21:58.222Z,21.10
2018-09-03T12:24:26.710Z,21.40
2018-09-03T12:26:55.198Z,21.10
2018-09-03T12:29:24.995Z,20.90
2018-09-03T12:31:53.475Z,20.70
2018-09-03T12:34:21.961Z,20.60
2018-09-03T12:36:50.525Z,20.80
2018-09-03T12:39:18.974Z,21.10
2018-09-03T12:41:47.465Z,21.20
2018-09-03T12:44:17.403Z,21.10
2018-09-03T12:46:46.476Z,21.10
2018-09-03T12:54:11.391Z,20.90
2018-09-03T12:56:40.446Z,21.20
2018-09-03T12:59:08.946Z,21.30
2018-09-03T13:01:37.468Z,21.20
2018-09-03T13:04:06.090Z,21.30
2018-09-03T13:06:34.587Z,21.40
2018-09-03T13:09:03.217Z,21.50
2018-09-03T13:11:31.754Z,21.50
2018-09-03T13:14:00.254Z,21.40
2018-09-03T13:16:29.211Z,21.30
2018-09-03T13:18:57.740Z,21.30
2018-09-03T13:21:26.210Z,21.10
2018-09-03T13:23:54.798Z,21.10
2018-09-03T13:26:23.758Z,21.00
2018-09-03T13:28:53.053Z,21.10
2018-09-03T13:31:22.966Z,21.40
2018-09-03T13:33:51.518Z,21.80
2018-09-03T13:36:20.011Z,21.60
2018-09-03T13:38:49.011Z,21.70
2018-09-03T13:41:17.524Z,21.60
2018-09-03T13:43:47.931Z,21.50
2018-09-03T13:46:17.407Z,21.40
2018-09-03T13:48:46.618Z,21.30
2018-09-03T13:56:11.654Z,21.70
2018-09-03T13:58:40.604Z,21.40
2018-09-03T14:01:09.106Z,21.40
2018-09-03T14:03:37.613Z,21.20
2018-09-03T14:06:06.898Z,21.10
2018-09-03T14:08:35.614Z,21.20
2018-09-03T14:11:04.150Z,21.40
2018-09-03T14:13:32.971Z,21.50
2018-09-03T14:16:01.480Z,21.60
2018-09-03T14:18:30.054Z,21.70
2018-09-03T14:20:58.591Z,21.70
2018-09-03T14:23:27.129Z,21.80
2018-09-03T14:25:55.639Z,21.60
2018-09-03T14:28:24.141Z,21.70
2018-09-03T14:30:53.500Z,21.60
2018-09-03T14:33:22.995Z,21.60
2018-09-03T14:35:51.510Z,21.50
2018-09-03T14:38:20.027Z,21.40
2018-09-03T14:40:49.006Z,21.50
2018-09-03T14:43:17.500Z,21.60
2018-09-03T14:45:46.017Z,21.80
2018-09-03T14:53:14.941Z,22.20
2018-09-03T14:55:43.718Z,22.30
2018-09-03T14:58:12.666Z,22.40
2018-09-03T15:00:41.568Z,22.40
2018-09-03T15:03:10.053Z,22.60
2018-09-03T15:05:38.546Z,22.70
2018-09-03T15:08:07.153Z,22.70
2018-09-03T15:10:35.720Z,22.70
2018-09-03T15:13:04.234Z,22.70
2018-09-03T15:15:33.541Z,22.70
2018-09-03T15:18:02.527Z,22.60
2018-09-03T15:20:31.057Z,22.40
2018-09-03T15:22:59.629Z,22.30
2018-09-03T15:25:28.498Z,22.30
2018-09-03T15:27:57.029Z,22.20
2018-09-03T15:30:25.566Z,22.30
2018-09-03T15:32:54.102Z,22.40
2018-09-03T15:35:23.070Z,22.50
2018-09-03T15:37:51.618Z,22.60
2018-09-03T15:40:20.100Z,22.70
2018-09-03T15:42:48.632Z,22.70
2018-09-03T15:45:18.018Z,22.70
2018-09-03T15:47:46.585Z,22.60
2018-09-03T15:55:14.792Z,22.60
2018-09-03T15:57:43.282Z,22.50
2018-09-03T16:00:11.821Z,22.70
2018-09-03T16:02:40.716Z,22.80
2018-09-03T16:05:09.230Z,22.70
2018-09-03T16:07:37.721Z,22.70
2018-09-03T16:10:06.327Z,22.70
2018-09-03T16:12:34.843Z,22.70
2018-09-03T16:15:03.329Z,22.50
2018-09-03T16:17:31.843Z,22.50
2018-09-03T16:20:01.140Z,22.50
2018-09-03T16:22:29.634Z,22.50
2018-09-03T16:24:59.042Z,22.40
2018-09-03T16:27:27.716Z,22.40
2018-09-03T16:29:56.117Z,22.30
2018-09-03T16:32:24.620Z,22.40
2018-09-03T16:34:53.114Z,22.30
2018-09-03T16:37:22.267Z,22.20
2018-09-03T16:39:50.795Z,22.10
2018-09-03T16:42:19.418Z,21.90
2018-09-03T16:44:47.897Z,21.80
2018-09-03T16:47:18.215Z,21.70
2018-09-03T16:49:46.699Z,21.50
2018-09-03T16:57:10.946Z,21.20
2018-09-03T16:59:39.425Z,21.00
2018-09-03T17:02:07.914Z,20.80
2018-09-03T17:04:36.710Z,20.80
2018-09-03T17:07:05.267Z,20.80
2018-09-03T17:09:33.859Z,20.80
2018-09-03T17:12:02.369Z,20.70
2018-09-03T17:14:31.564Z,20.70
2018-09-03T17:17:00.306Z,20.70
2018-09-03T17:19:28.834Z,20.60
2018-09-03T17:21:57.313Z,20.50
2018-09-03T17:24:25.809Z,20.50
2018-09-03T17:26:54.922Z,20.40
2018-09-03T17:29:23.414Z,20.30
2018-09-03T17:31:51.928Z,20.10
2018-09-03T17:34:21.071Z,20.10
2018-09-03T17:36:49.597Z,20.00
2018-09-03T17:39:18.643Z,19.70
2018-09-03T17:41:47.158Z,19.70
2018-09-03T17:44:17.500Z,19.60
2018-09-03T17:46:45.978Z,19.40
2018-09-03T17:54:10.433Z,19.30
2018-09-03T17:56:38.943Z,19.30
2018-09-03T17:59:07.438Z,19.30
2018-09-03T18:01:35.975Z,19.30
2018-09-03T18:04:05.002Z,19.30
2018-09-03T18:06:34.759Z,19.20
2018-09-03T18:09:03.542Z,19.20
2018-09-03T18:11:32.079Z,19.20
2018-09-03T18:14:00.582Z,19.10
2018-09-03T18:16:30.278Z,19.20
2018-09-03T18:18:58.775Z,19.20
2018-09-03T18:21:27.280Z,19.20
2018-09-03T18:23:55.801Z,19.10
2018-09-03T18:26:24.282Z,19.20
2018-09-03T18:28:52.984Z,19.20
2018-09-03T18:31:21.503Z,19.20
2018-09-03T18:33:49.981Z,19.20
2018-09-03T18:36:18.461Z,19.20
2018-09-03T18:38:48.385Z,19.20
2018-09-03T18:41:18.207Z,19.00
2018-09-03T18:43:46.666Z,19.00
2018-09-03T18:51:13.129Z,19.00
2018-09-03T18:53:42.504Z,18.90
2018-09-03T18:56:11.043Z,18.90
2018-09-03T18:58:40.265Z,19.00
2018-09-03T19:01:08.760Z,18.90
2018-09-03T19:03:37.262Z,18.90
2018-09-03T19:06:06.230Z,18.80
2018-09-03T19:08:34.991Z,18.80
2018-09-03T19:11:03.548Z,18.80
2018-09-03T19:13:32.083Z,18.80
2018-09-03T19:16:00.605Z,18.80
2018-09-03T19:18:29.515Z,18.80
2018-09-03T19:20:58.712Z,18.80
2018-09-03T19:23:27.234Z,18.80
2018-09-03T19:25:57.088Z,18.80
2018-09-03T19:28:25.724Z,18.80
2018-09-03T19:30:54.313Z,18.80
2018-09-03T19:33:22.890Z,18.70
2018-09-03T19:35:51.489Z,18.70
2018-09-03T19:38:20.165Z,18.70
2018-09-03T19:40:49.147Z,18.60
2018-09-03T19:43:18.457Z,18.60
2018-09-03T19:45:46.953Z,18.60
2018-09-03T19:53:11.213Z,18.40
2018-09-03T19:55:39.875Z,18.40
2018-09-03T19:58:08.386Z,18.30
2018-09-03T20:00:37.905Z,18.20
2018-09-03T20:03:06.464Z,18.20
2018-09-03T20:05:35.007Z,18.10
2018-09-03T20:08:03.526Z,18.10
2018-09-03T20:10:32.050Z,18.10
2018-09-03T20:13:01.426Z,18.10
2018-09-03T20:15:30.728Z,18.20
2018-09-03T20:17:59.273Z,18.20
2018-09-03T20:20:27.782Z,18.20
2018-09-03T20:22:56.869Z,18.20
2018-09-03T20:25:25.347Z,18.20
2018-09-03T20:27:53.846Z,18.20
2018-09-03T20:30:22.402Z,18.10
2018-09-03T20:32:50.927Z,18.10
2018-09-03T20:35:19.416Z,18.00
2018-09-03T20:37:47.947Z,17.90
2018-09-03T20:40:17.471Z,17.90
2018-09-03T20:42:46.055Z,17.90
2018-09-03T20:50:15.371Z,17.90
2018-09-03T20:52:43.873Z,17.60
2018-09-03T20:55:12.821Z,17.50
2018-09-03T20:57:41.322Z,17.40
2018-09-03T21:00:10.014Z,17.40
2018-09-03T21:02:38.818Z,17.40
2018-09-03T21:05:07.646Z,17.40
2018-09-03T21:07:36.138Z,17.40
2018-09-03T21:10:04.722Z,17.40
2018-09-03T21:12:33.246Z,17.50
2018-09-03T21:15:02.598Z,17.40
2018-09-03T21:17:32.375Z,17.40
2018-09-03T21:20:01.292Z,17.40
2018-09-03T21:22:29.810Z,17.30
2018-09-03T21:24:58.614Z,17.30
2018-09-03T21:27:27.177Z,17.30
2018-09-03T21:29:55.735Z,17.40
2018-09-03T21:32:24.298Z,17.40
2018-09-03T21:34:53.602Z,17.40
2018-09-03T21:37:22.101Z,17.40
2018-09-03T21:39:50.672Z,17.40
2018-09-03T21:42:19.223Z,17.40
2018-09-03T21:44:47.742Z,17.30
2018-09-03T21:47:18.035Z,17.40
2018-09-03T21:49:46.549Z,17.40
2018-09-03T21:57:16.082Z,17.20
2018-09-03T21:59:44.578Z,17.00
2018-09-03T22:02:13.519Z,17.10
2018-09-03T22:04:42.853Z,17.10
2018-09-03T22:07:11.958Z,17.10
2018-09-03T22:09:40.725Z,17.10
2018-09-03T22:12:09.366Z,17.20
2018-09-03T22:14:37.865Z,17.20
2018-09-03T22:17:06.394Z,17.20
2018-09-03T22:19:35.433Z,17.30
2018-09-03T22:22:04.028Z,17.30
2018-09-03T22:24:32.583Z,17.30
2018-09-03T22:27:01.177Z,17.20
2018-09-03T22:29:29.674Z,17.20
2018-09-03T22:31:58.162Z,17.20
2018-09-03T22:34:26.666Z,17.20
2018-09-03T22:36:55.167Z,17.10
2018-09-03T22:39:23.658Z,17.10
2018-09-03T22:41:52.861Z,17.10
2018-09-03T22:44:21.382Z,17.10
2018-09-03T22:46:49.873Z,17.10
2018-09-03T22:49:19.098Z,17.10
2018-09-03T22:51:47.617Z,17.10
2018-09-03T22:54:17.360Z,17.10
2018-09-03T22:56:46.247Z,17.00
2018-09-03T23:04:11.423Z,16.90
2018-09-03T23:06:39.898Z,16.90
2018-09-03T23:09:08.825Z,17.00
2018-09-03T23:11:37.389Z,17.00
2018-09-03T23:14:06.734Z,17.00
2018-09-03T23:16:35.234Z,17.00
2018-09-03T23:19:04.316Z,16.90
2018-09-03T23:21:32.847Z,17.00
2018-09-03T23:24:01.337Z,16.90
2018-09-03T23:26:30.290Z,16.90
2018-09-03T23:28:58.773Z,16.80
2018-09-03T23:31:27.257Z,16.80
2018-09-03T23:33:55.773Z,16.80
2018-09-03T23:36:24.249Z,16.70
2018-09-03T23:38:52.757Z,16.80
2018-09-03T23:41:21.296Z,16.80
2018-09-03T23:43:49.782Z,16.80
2018-09-03T23:46:18.318Z,16.80
2018-09-03T23:48:47.454Z,16.80
2018-09-03T23:56:12.066Z,16.70
2018-09-03T23:58:40.558Z,16.70
